createdAt,value
2023-05-25T00:01:01.045Z,27.81
2023-05-25T00:02:08.926Z,27.81
2023-05-25T00:03:14.008Z,27.83
2023-05-25T00:04:21.912Z,27.85
2023-05-25T00:05:29.032Z,27.84
2023-05-25T00:06:38.717Z,27.85
2023-05-25T00:07:43.811Z,27.84
2023-05-25T00:08:50.171Z,27.84
2023-05-25T00:09:55.135Z,27.86
2023-05-25T00:11:01.532Z,27.87
2023-05-25T00:12:07.370Z,27.88
2023-05-25T00:13:13.682Z,27.90
2023-05-25T00:14:18.678Z,27.91
2023-05-25T00:15:26.755Z,27.91
2023-05-25T00:16:33.168Z,27.90
2023-05-25T00:17:39.702Z,27.90
2023-05-25T00:18:45.005Z,27.91
2023-05-25T00:19:51.454Z,27.92
2023-05-25T00:20:56.533Z,27.93
2023-05-25T00:22:03.626Z,27.95
2023-05-25T00:23:08.644Z,27.96
2023-05-25T00:24:14.972Z,27.97
2023-05-25T00:25:22.230Z,27.99
2023-05-25T00:26:28.700Z,27.99
2023-05-25T00:27:34.018Z,28.01
2023-05-25T00:28:40.358Z,28.02
2023-05-25T00:29:45.333Z,28.04
2023-05-25T00:30:53.585Z,28.07
2023-05-25T00:31:59.132Z,28.08
2023-05-25T00:33:05.554Z,28.10
2023-05-25T00:34:10.591Z,28.10
2023-05-25T00:35:16.895Z,28.12
2023-05-25T00:36:22.070Z,28.13
2023-05-25T00:37:28.381Z,28.15
2023-05-25T00:38:33.468Z,28.16
2023-05-25T00:39:39.809Z,28.18
2023-05-25T00:40:45.287Z,28.19
2023-05-25T00:41:52.246Z,28.19
2023-05-25T00:42:57.848Z,28.20
2023-05-25T00:44:04.210Z,28.21
2023-05-25T00:45:10.492Z,28.22
2023-05-25T00:46:19.079Z,28.23
2023-05-25T00:47:24.198Z,28.25
2023-05-25T00:48:30.608Z,28.25
2023-05-25T00:49:38.213Z,28.28
2023-05-25T00:50:47.015Z,28.29
2023-05-25T00:51:52.115Z,28.31
2023-05-25T00:52:58.551Z,28.34
2023-05-25T00:54:03.603Z,28.35
2023-05-25T00:55:11.260Z,28.35
2023-05-25T00:56:18.865Z,28.35
2023-05-25T00:57:26.465Z,28.36
2023-05-25T00:58:35.745Z,28.36
2023-05-25T00:59:44.107Z,28.37
2023-05-25T01:00:51.887Z,28.37
2023-05-25T01:02:00.945Z,28.39
2023-05-25T01:03:13.170Z,28.41
2023-05-25T01:04:22.814Z,28.43
2023-05-25T01:05:30.440Z,28.46
2023-05-25T01:06:38.020Z,28.46
2023-05-25T01:07:45.459Z,28.47
2023-05-25T01:08:55.644Z,28.49
2023-05-25T01:10:02.005Z,28.50
2023-05-25T01:11:09.869Z,28.53
2023-05-25T01:12:16.736Z,28.55
2023-05-25T01:13:23.706Z,28.57
2023-05-25T01:14:29.023Z,28.60
2023-05-25T01:15:36.975Z,28.61
2023-05-25T01:16:42.106Z,28.61
2023-05-25T01:17:50.129Z,28.63
2023-05-25T01:18:55.532Z,28.64
2023-05-25T01:20:10.541Z,28.66
2023-05-25T01:21:23.354Z,28.68
2023-05-25T01:22:33.915Z,28.68
2023-05-25T01:23:39.995Z,28.68
2023-05-25T01:24:50.144Z,28.71
2023-05-25T01:25:57.702Z,28.71
2023-05-25T01:27:07.403Z,28.73
2023-05-25T01:28:14.990Z,28.75
2023-05-25T01:29:21.773Z,28.78
2023-05-25T01:30:28.906Z,28.80
2023-05-25T01:31:36.313Z,28.81
2023-05-25T01:32:41.480Z,28.83
2023-05-25T01:33:48.220Z,28.84
2023-05-25T01:34:53.364Z,28.87
2023-05-25T01:35:59.899Z,28.88
2023-05-25T01:37:06.879Z,28.90
2023-05-25T01:38:13.861Z,28.91
2023-05-25T01:39:19.662Z,28.92
2023-05-25T01:40:25.997Z,28.95
2023-05-25T01:41:31.107Z,28.96
2023-05-25T01:42:37.376Z,28.98
2023-05-25T01:43:42.428Z,28.99
2023-05-25T01:44:49.140Z,29.02
2023-05-25T01:45:56.557Z,29.04
2023-05-25T01:47:09.180Z,29.05
2023-05-25T01:48:18.254Z,29.09
2023-05-25T01:49:30.624Z,29.10
2023-05-25T01:50:40.205Z,29.14
2023-05-25T01:51:56.991Z,29.19
2023-05-25T01:53:06.093Z,29.22
2023-05-25T01:54:17.556Z,29.25
2023-05-25T01:55:23.723Z,29.28
2023-05-25T01:56:31.505Z,29.32
2023-05-25T01:57:38.181Z,29.33
2023-05-25T01:58:46.356Z,29.36
2023-05-25T01:59:53.124Z,29.40
2023-05-25T02:01:00.160Z,29.43
2023-05-25T02:02:05.610Z,29.46
2023-05-25T02:03:12.676Z,29.47
2023-05-25T02:04:17.668Z,29.49
2023-05-25T02:05:24.551Z,29.52
2023-05-25T02:06:30.031Z,29.55
2023-05-25T02:07:37.618Z,29.59
2023-05-25T02:08:45.200Z,29.62
2023-05-25T02:09:51.574Z,29.67
2023-05-25T02:10:56.579Z,29.69
2023-05-25T02:12:02.931Z,29.72
2023-05-25T02:13:07.996Z,29.75
2023-05-25T02:14:14.357Z,29.78
2023-05-25T02:15:19.792Z,29.79
2023-05-25T02:16:26.115Z,29.80
2023-05-25T02:17:31.672Z,29.82
2023-05-25T02:18:38.526Z,29.83
2023-05-25T02:19:43.546Z,29.84
2023-05-25T02:20:50.215Z,29.86
2023-05-25T02:21:55.243Z,29.88
2023-05-25T02:23:01.763Z,29.89
2023-05-25T02:24:10.786Z,29.89
2023-05-25T02:25:17.227Z,29.89
2023-05-25T02:26:22.321Z,29.92
2023-05-25T02:27:28.581Z,29.94
2023-05-25T02:28:33.722Z,29.97
2023-05-25T02:29:40.069Z,30.00
2023-05-25T02:30:45.155Z,30.01
2023-05-25T02:31:51.526Z,30.03
2023-05-25T02:32:56.681Z,30.05
2023-05-25T02:34:03.277Z,30.06
2023-05-25T02:35:10.374Z,30.08
2023-05-25T02:36:15.413Z,30.11
2023-05-25T02:37:22.539Z,30.12
2023-05-25T02:38:27.839Z,30.14
2023-05-25T02:39:36.015Z,30.17
2023-05-25T02:40:41.100Z,30.19
2023-05-25T02:41:47.602Z,30.20
2023-05-25T02:42:52.693Z,30.22
2023-05-25T02:43:59.443Z,30.24
2023-05-25T02:45:04.733Z,30.25
2023-05-25T02:46:11.059Z,30.25
2023-05-25T02:47:16.445Z,30.26
2023-05-25T02:48:23.358Z,30.28
2023-05-25T02:49:28.437Z,30.30
2023-05-25T02:50:34.885Z,30.30
2023-05-25T02:51:39.924Z,30.32
2023-05-25T02:52:46.308Z,30.34
2023-05-25T02:53:51.237Z,30.36
2023-05-25T02:54:59.352Z,30.39
2023-05-25T02:56:05.347Z,30.40
2023-05-25T02:57:11.782Z,30.40
2023-05-25T02:58:16.912Z,30.44
2023-05-25T02:59:23.281Z,30.47
2023-05-25T03:00:28.728Z,30.49
2023-05-25T03:01:36.237Z,30.51
2023-05-25T03:02:41.362Z,30.54
2023-05-25T03:03:48.157Z,30.54
2023-05-25T03:04:54.956Z,30.57
2023-05-25T03:06:01.411Z,30.58
2023-05-25T03:07:06.742Z,30.63
2023-05-25T03:08:13.180Z,30.65
2023-05-25T03:09:18.199Z,30.67
2023-05-25T03:10:26.215Z,30.68
2023-05-25T03:11:31.461Z,30.72
2023-05-25T03:12:37.888Z,30.77
2023-05-25T03:13:43.087Z,30.78
2023-05-25T03:14:52.314Z,30.80
2023-05-25T03:15:57.325Z,30.84
2023-05-25T03:17:03.787Z,30.84
2023-05-25T03:18:09.106Z,30.84
2023-05-25T03:19:15.500Z,30.84
2023-05-25T03:20:22.211Z,30.86
2023-05-25T03:21:29.095Z,30.87
2023-05-25T03:22:34.173Z,30.87
2023-05-25T03:23:40.469Z,30.89
2023-05-25T03:24:45.543Z,30.92
2023-05-25T03:25:53.808Z,30.96
2023-05-25T03:26:58.876Z,30.98
2023-05-25T03:28:05.178Z,31.00
2023-05-25T03:29:10.238Z,31.02
2023-05-25T03:30:17.465Z,31.05
2023-05-25T03:31:22.576Z,31.09
2023-05-25T03:32:28.969Z,31.10
2023-05-25T03:33:35.404Z,31.13
2023-05-25T03:34:41.658Z,31.14
2023-05-25T03:35:48.386Z,31.17
2023-05-25T03:36:56.279Z,31.19
2023-05-25T03:38:01.308Z,31.20
2023-05-25T03:39:07.769Z,31.24
2023-05-25T03:40:13.367Z,31.25
2023-05-25T03:41:21.409Z,31.28
2023-05-25T03:42:26.427Z,31.28
2023-05-25T03:43:32.772Z,31.29
2023-05-25T03:44:39.312Z,31.30
2023-05-25T03:45:48.041Z,31.30
2023-05-25T03:46:53.120Z,31.31
2023-05-25T03:47:59.458Z,31.31
2023-05-25T03:49:04.551Z,31.32
2023-05-25T03:50:11.979Z,31.32
2023-05-25T03:51:17.733Z,31.34
2023-05-25T03:52:24.083Z,31.34
2023-05-25T03:53:29.073Z,31.35
2023-05-25T03:54:35.421Z,31.36
2023-05-25T03:55:40.560Z,31.37
2023-05-25T03:56:48.554Z,31.37
2023-05-25T03:57:53.642Z,31.38
2023-05-25T03:58:59.949Z,31.37
2023-05-25T04:00:06.559Z,31.39
2023-05-25T04:01:14.951Z,31.40
2023-05-25T04:02:20.054Z,31.41
2023-05-25T04:03:26.550Z,31.44
2023-05-25T04:04:31.723Z,31.46
2023-05-25T04:05:38.305Z,31.48
2023-05-25T04:06:44.131Z,31.49
2023-05-25T04:07:50.484Z,31.51
2023-05-25T04:08:55.461Z,31.52
2023-05-25T04:10:02.062Z,31.53
2023-05-25T04:11:08.586Z,31.55
2023-05-25T04:12:15.401Z,31.55
2023-05-25T04:13:21.831Z,31.57
2023-05-25T04:14:26.881Z,31.58
2023-05-25T04:15:35.901Z,31.60
2023-05-25T04:16:43.270Z,31.60
2023-05-25T04:17:48.399Z,31.64
2023-05-25T04:18:54.816Z,31.63
2023-05-25T04:19:59.983Z,31.66
2023-05-25T04:21:06.396Z,31.68
2023-05-25T04:22:11.439Z,31.69
2023-05-25T04:23:18.275Z,31.73
2023-05-25T04:24:24.245Z,31.75
2023-05-25T04:25:30.660Z,31.78
2023-05-25T04:26:35.680Z,31.80
2023-05-25T04:27:43.722Z,31.83
2023-05-25T04:28:48.951Z,31.86
2023-05-25T04:29:55.522Z,31.87
2023-05-25T04:31:01.090Z,31.89
2023-05-25T04:32:07.558Z,31.90
2023-05-25T04:33:13.258Z,31.93
2023-05-25T04:34:19.312Z,31.95
2023-05-25T04:35:24.782Z,31.98
2023-05-25T04:36:31.186Z,31.99
2023-05-25T04:37:38.028Z,32.03
2023-05-25T04:38:44.344Z,32.05
2023-05-25T04:39:49.040Z,32.09
2023-05-25T04:40:55.798Z,32.10
2023-05-25T04:42:00.806Z,32.13
2023-05-25T04:43:08.775Z,32.17
2023-05-25T04:44:14.841Z,32.18
2023-05-25T04:45:22.842Z,32.20
2023-05-25T04:46:28.034Z,32.22
2023-05-25T04:47:36.101Z,32.25
2023-05-25T04:48:41.244Z,32.27
2023-05-25T04:49:47.580Z,32.30
2023-05-25T04:50:53.957Z,32.30
2023-05-25T04:52:00.151Z,32.31
2023-05-25T04:53:05.110Z,32.35
2023-05-25T04:54:11.483Z,32.37
2023-05-25T04:55:16.377Z,32.39
2023-05-25T04:56:23.918Z,32.42
2023-05-25T04:57:29.766Z,32.43
2023-05-25T04:58:37.509Z,32.46
2023-05-25T04:59:42.817Z,32.47
2023-05-25T05:00:50.631Z,32.49
2023-05-25T05:01:58.318Z,32.53
2023-05-25T05:03:03.596Z,32.55
2023-05-25T05:04:09.855Z,32.57
2023-05-25T05:05:14.438Z,32.57
2023-05-25T05:06:20.556Z,32.57
2023-05-25T05:07:25.453Z,32.58
2023-05-25T05:08:31.733Z,32.59
2023-05-25T05:09:36.761Z,32.58
2023-05-25T05:10:43.353Z,32.59
2023-05-25T05:11:48.201Z,32.58
2023-05-25T05:13:09.401Z,32.59
2023-05-25T05:14:16.129Z,32.62
2023-05-25T05:15:22.300Z,32.62
2023-05-25T05:16:27.263Z,32.64
2023-05-25T05:17:33.378Z,32.66
2023-05-25T05:18:38.410Z,32.67
2023-05-25T05:19:44.285Z,32.69
2023-05-25T05:20:49.267Z,32.70
2023-05-25T05:21:55.271Z,32.73
2023-05-25T05:23:00.201Z,32.77
2023-05-25T05:24:06.172Z,32.80
2023-05-25T05:25:11.418Z,32.83
2023-05-25T05:26:17.677Z,32.85
2023-05-25T05:27:22.323Z,32.88
2023-05-25T05:28:29.420Z,32.90
2023-05-25T05:29:35.807Z,32.92
2023-05-25T05:30:42.279Z,32.92
2023-05-25T05:31:47.512Z,32.94
2023-05-25T05:32:53.541Z,32.96
2023-05-25T05:33:59.430Z,32.97
2023-05-25T05:35:04.117Z,33.00
2023-05-25T05:36:10.734Z,33.03
2023-05-25T05:37:15.444Z,33.05
2023-05-25T05:38:21.739Z,33.08
2023-05-25T05:39:26.535Z,33.10
2023-05-25T05:40:32.676Z,33.10
2023-05-25T05:41:37.530Z,33.13
2023-05-25T05:42:43.434Z,33.16
2023-05-25T05:43:48.304Z,33.18
2023-05-25T05:44:56.097Z,33.20
2023-05-25T05:46:01.075Z,33.22
2023-05-25T05:47:07.233Z,33.24
2023-05-25T05:48:12.147Z,33.27
2023-05-25T05:49:18.334Z,33.28
2023-05-25T05:50:23.547Z,33.28
2023-05-25T05:51:30.131Z,33.31
2023-05-25T05:52:35.171Z,33.33
2023-05-25T05:53:41.128Z,33.36
2023-05-25T05:54:45.664Z,33.38
2023-05-25T05:55:56.260Z,33.42
2023-05-25T05:57:02.309Z,33.43
2023-05-25T05:58:08.088Z,33.47
2023-05-25T05:59:13.634Z,33.51
2023-05-25T06:00:22.492Z,33.54
2023-05-25T06:01:27.650Z,33.58
2023-05-25T06:02:33.595Z,33.61
2023-05-25T06:03:39.032Z,33.63
2023-05-25T06:04:44.943Z,33.67
2023-05-25T06:05:49.629Z,33.68
2023-05-25T06:06:55.446Z,33.69
2023-05-25T06:08:03.567Z,33.71
2023-05-25T06:09:09.971Z,33.73
2023-05-25T06:10:15.928Z,33.74
2023-05-25T06:11:20.945Z,33.76
2023-05-25T06:12:27.831Z,33.78
2023-05-25T06:13:32.496Z,33.80
2023-05-25T06:14:38.394Z,33.81
2023-05-25T06:15:44.901Z,33.83
2023-05-25T06:16:52.013Z,33.86
2023-05-25T06:17:58.071Z,33.86
2023-05-25T06:19:03.163Z,33.90
2023-05-25T06:20:10.403Z,33.91
2023-05-25T06:21:15.356Z,33.92
2023-05-25T06:22:21.400Z,33.92
2023-05-25T06:23:26.049Z,33.94
2023-05-25T06:24:32.805Z,33.95
2023-05-25T06:25:37.500Z,33.96
2023-05-25T06:26:43.323Z,33.98
2023-05-25T06:27:48.380Z,34.00
2023-05-25T06:28:54.456Z,34.01
2023-05-25T06:29:59.509Z,34.04
2023-05-25T06:31:07.143Z,34.04
2023-05-25T06:32:12.571Z,34.06
2023-05-25T06:33:18.653Z,34.08
2023-05-25T06:34:23.714Z,34.11
2023-05-25T06:35:30.198Z,34.13
2023-05-25T06:36:36.134Z,34.15
2023-05-25T06:37:40.814Z,34.15
2023-05-25T06:38:48.449Z,34.17
2023-05-25T06:39:54.859Z,34.20
2023-05-25T06:41:04.817Z,34.21
2023-05-25T06:42:10.327Z,34.22
2023-05-25T06:43:16.293Z,34.24
2023-05-25T06:44:21.192Z,34.26
2023-05-25T06:45:27.486Z,34.27
2023-05-25T06:46:33.906Z,34.29
2023-05-25T06:47:39.899Z,34.31
2023-05-25T06:48:44.849Z,34.36
2023-05-25T06:49:50.801Z,34.39
2023-05-25T06:50:55.353Z,34.44
2023-05-25T06:52:01.254Z,34.47
2023-05-25T06:53:07.178Z,34.48
2023-05-25T06:54:16.170Z,34.49
2023-05-25T06:55:22.540Z,34.50
2023-05-25T06:56:29.641Z,34.51
2023-05-25T06:57:35.605Z,34.52
2023-05-25T06:58:41.539Z,34.54
2023-05-25T06:59:48.233Z,34.58
2023-05-25T07:00:54.712Z,34.62
2023-05-25T07:02:03.227Z,34.63
2023-05-25T07:03:07.952Z,34.68
2023-05-25T07:04:14.191Z,34.72
2023-05-25T07:05:20.221Z,34.77
2023-05-25T07:06:25.652Z,34.80
2023-05-25T07:07:33.664Z,34.84
2023-05-25T07:08:38.376Z,34.88
2023-05-25T07:09:44.338Z,34.91
2023-05-25T07:10:50.363Z,34.95
2023-05-25T07:11:56.535Z,34.97
2023-05-25T07:13:01.561Z,34.98
2023-05-25T07:14:07.592Z,34.99
2023-05-25T07:15:14.614Z,34.99
2023-05-25T07:16:20.753Z,34.99
2023-05-25T07:17:29.544Z,34.98
2023-05-25T07:18:34.391Z,34.95
2023-05-25T07:19:40.210Z,34.92
2023-05-25T07:20:44.925Z,34.92
2023-05-25T07:21:51.284Z,34.95
2023-05-25T07:22:56.341Z,35.00
2023-05-25T07:24:02.965Z,35.01
2023-05-25T07:25:08.341Z,35.05
2023-05-25T07:26:14.427Z,35.08
2023-05-25T07:27:19.062Z,35.11
2023-05-25T07:28:24.818Z,35.14
2023-05-25T07:29:29.357Z,35.18
2023-05-25T07:30:35.205Z,35.22
2023-05-25T07:31:41.084Z,35.26
2023-05-25T07:32:48.616Z,35.27
2023-05-25T07:33:54.231Z,35.33
2023-05-25T07:35:00.004Z,35.35
2023-05-25T07:36:04.532Z,35.38
2023-05-25T07:37:10.323Z,35.38
2023-05-25T07:38:14.883Z,35.38
2023-05-25T07:39:20.670Z,35.41
2023-05-25T07:40:25.160Z,35.42
2023-05-25T07:41:30.933Z,35.42
2023-05-25T07:42:36.694Z,35.43
2023-05-25T07:43:41.234Z,35.45
2023-05-25T07:44:47.027Z,35.47
2023-05-25T07:45:51.542Z,35.48
2023-05-25T07:46:57.400Z,35.50
2023-05-25T07:48:03.733Z,35.53
2023-05-25T07:49:14.077Z,35.48
2023-05-25T07:50:18.707Z,35.48
2023-05-25T07:51:27.393Z,35.51
2023-05-25T07:52:31.853Z,35.53
2023-05-25T07:53:37.701Z,35.56
2023-05-25T07:54:42.266Z,35.60
2023-05-25T07:55:48.139Z,35.63
2023-05-25T07:56:54.208Z,35.67
2023-05-25T07:57:58.676Z,35.66
2023-05-25T07:59:04.452Z,35.67
2023-05-25T08:00:10.581Z,35.68
2023-05-25T08:01:17.131Z,35.72
2023-05-25T08:02:21.744Z,35.76
2023-05-25T08:03:44.272Z,35.81
2023-05-25T08:04:55.074Z,35.88
2023-05-25T08:05:59.523Z,35.94
2023-05-25T08:07:05.349Z,36.00
2023-05-25T08:08:11.081Z,36.08
2023-05-25T08:09:16.879Z,36.12
2023-05-25T08:10:21.393Z,36.18
2023-05-25T08:11:28.629Z,36.26
2023-05-25T08:12:47.202Z,36.30
2023-05-25T08:13:55.035Z,36.36
2023-05-25T08:14:59.616Z,36.40
2023-05-25T08:16:05.400Z,36.43
2023-05-25T08:17:09.913Z,36.47
2023-05-25T08:18:15.831Z,36.51
2023-05-25T08:19:22.084Z,36.53
2023-05-25T08:20:28.112Z,36.55
2023-05-25T08:21:35.721Z,36.54
2023-05-25T08:22:41.585Z,36.57
2023-05-25T08:23:46.745Z,36.63
2023-05-25T08:24:52.669Z,36.61
2023-05-25T08:25:57.150Z,36.52
2023-05-25T08:27:03.057Z,36.50
2023-05-25T08:28:07.528Z,36.58
2023-05-25T08:29:13.300Z,36.58
2023-05-25T08:30:17.825Z,36.53
2023-05-25T08:31:23.669Z,36.59
2023-05-25T08:32:28.259Z,36.55
2023-05-25T08:33:34.101Z,36.52
2023-05-25T08:34:41.505Z,36.49
2023-05-25T08:35:47.526Z,36.44
2023-05-25T08:36:53.308Z,36.37
2023-05-25T08:37:59.142Z,36.30
2023-05-25T08:39:03.862Z,36.33
2023-05-25T08:40:11.684Z,36.42
2023-05-25T08:41:17.729Z,36.52
2023-05-25T08:42:22.295Z,36.62
2023-05-25T08:43:28.098Z,36.73
2023-05-25T08:44:34.062Z,36.69
2023-05-25T08:45:41.807Z,36.59
2023-05-25T08:46:51.929Z,36.49
2023-05-25T08:47:58.541Z,36.39
2023-05-25T08:49:11.616Z,36.28
2023-05-25T08:50:19.294Z,36.18
2023-05-25T08:51:25.118Z,36.12
2023-05-25T08:52:34.108Z,36.05
2023-05-25T08:53:41.350Z,35.98
2023-05-25T08:54:46.418Z,35.83
2023-05-25T08:55:54.070Z,35.74
2023-05-25T08:57:03.876Z,35.67
2023-05-25T08:58:13.576Z,35.65
2023-05-25T08:59:25.430Z,35.70
2023-05-25T09:00:33.891Z,35.76
2023-05-25T09:01:44.041Z,35.79
2023-05-25T09:02:55.155Z,35.85
2023-05-25T09:04:01.806Z,35.87
2023-05-25T09:05:08.800Z,35.86
2023-05-25T09:06:16.500Z,35.83
2023-05-25T09:07:22.561Z,35.81
2023-05-25T09:08:28.239Z,35.79
2023-05-25T09:09:36.211Z,35.78
2023-05-25T09:10:41.016Z,35.76
2023-05-25T09:11:47.376Z,35.75
2023-05-25T09:12:54.888Z,35.71
2023-05-25T09:14:00.021Z,35.67
2023-05-25T09:15:05.950Z,35.59
2023-05-25T09:16:12.183Z,35.52
2023-05-25T09:17:16.899Z,35.43
2023-05-25T09:18:22.996Z,35.34
2023-05-25T09:19:27.520Z,35.24
2023-05-25T09:20:34.088Z,35.18
2023-05-25T09:21:41.590Z,35.08
2023-05-25T09:22:47.741Z,35.02
2023-05-25T09:23:53.698Z,34.99
2023-05-25T09:24:59.625Z,34.96
2023-05-25T09:26:04.150Z,34.91
2023-05-25T09:27:09.975Z,34.90
2023-05-25T09:29:24.422Z,34.85
2023-05-25T09:30:33.763Z,34.82
2023-05-25T09:31:40.246Z,34.78
2023-05-25T09:32:44.782Z,34.70
2023-05-25T09:33:50.616Z,34.60
2023-05-25T09:34:57.606Z,34.51
2023-05-25T09:36:02.413Z,34.45
2023-05-25T09:37:15.160Z,34.38
2023-05-25T09:38:21.713Z,34.31
2023-05-25T09:39:29.225Z,34.24
2023-05-25T09:40:35.520Z,34.18
2023-05-25T09:41:42.004Z,34.14
2023-05-25T09:42:46.500Z,34.11
2023-05-25T09:44:01.975Z,34.09
2023-05-25T09:45:16.575Z,34.05
2023-05-25T09:46:21.198Z,34.03
2023-05-25T09:47:27.006Z,34.02
2023-05-25T09:48:35.587Z,34.02
2023-05-25T09:49:40.097Z,34.03
2023-05-25T09:50:49.534Z,34.02
2023-05-25T09:51:55.833Z,33.98
2023-05-25T09:53:03.978Z,33.95
2023-05-25T09:54:12.379Z,33.93
2023-05-25T09:55:18.958Z,33.86
2023-05-25T09:56:25.642Z,33.79
2023-05-25T09:57:31.628Z,33.74
2023-05-25T09:58:36.156Z,33.72
2023-05-25T09:59:41.987Z,33.68
2023-05-25T10:00:47.830Z,33.64
2023-05-25T10:01:55.852Z,33.59
2023-05-25T10:03:01.813Z,33.54
2023-05-25T10:04:06.901Z,33.48
2023-05-25T10:05:13.058Z,33.44
2023-05-25T10:06:18.929Z,33.40
2023-05-25T10:07:24.819Z,33.36
2023-05-25T10:08:31.113Z,33.33
2023-05-25T10:09:41.123Z,33.27
2023-05-25T10:10:47.317Z,33.23
2023-05-25T10:11:53.770Z,33.17
2023-05-25T10:12:59.612Z,33.12
2023-05-25T10:14:08.887Z,33.07
2023-05-25T10:15:16.261Z,33.03
2023-05-25T10:16:20.901Z,32.98
2023-05-25T10:17:27.575Z,32.97
2023-05-25T10:18:35.217Z,32.97
2023-05-25T10:19:44.071Z,32.94
2023-05-25T10:20:50.995Z,32.92
2023-05-25T10:22:00.893Z,32.92
2023-05-25T10:23:11.731Z,32.93
2023-05-25T10:24:27.681Z,32.92
2023-05-25T10:25:37.812Z,32.92
2023-05-25T10:26:44.661Z,32.92
2023-05-25T10:27:54.346Z,32.92
2023-05-25T10:29:02.396Z,32.91
2023-05-25T10:30:09.987Z,32.91
2023-05-25T10:31:14.936Z,32.91
2023-05-25T10:32:21.263Z,32.90
2023-05-25T10:33:27.474Z,32.91
2023-05-25T10:34:33.428Z,32.90
2023-05-25T10:35:56.284Z,32.88
2023-05-25T10:37:07.542Z,32.83
2023-05-25T10:38:12.825Z,32.75
2023-05-25T10:39:21.668Z,32.62
2023-05-25T10:40:27.766Z,32.53
2023-05-25T10:41:33.607Z,32.43
2023-05-25T10:42:40.303Z,32.36
2023-05-25T10:43:45.423Z,32.30
2023-05-25T10:44:51.394Z,32.21
2023-05-25T10:45:57.675Z,32.13
2023-05-25T10:47:02.768Z,32.08
2023-05-25T10:48:08.844Z,32.03
2023-05-25T10:49:14.761Z,32.03
2023-05-25T10:50:25.347Z,32.00
2023-05-25T10:51:41.267Z,32.01
2023-05-25T10:52:45.799Z,32.02
2023-05-25T10:54:02.886Z,31.98
2023-05-25T10:55:12.838Z,31.94
2023-05-25T10:56:17.322Z,31.91
2023-05-25T10:57:23.769Z,31.86
2023-05-25T10:58:29.489Z,31.84
2023-05-25T10:59:35.870Z,31.85
2023-05-25T11:00:42.507Z,31.86
2023-05-25T11:01:54.075Z,31.87
2023-05-25T11:02:58.702Z,31.87
2023-05-25T11:04:19.174Z,31.83
2023-05-25T11:05:44.334Z,31.83
2023-05-25T11:07:17.150Z,31.82
2023-05-25T11:08:25.254Z,31.82
2023-05-25T11:09:30.119Z,31.82
2023-05-25T11:10:58.598Z,31.83
2023-05-25T11:12:07.487Z,31.83
2023-05-25T11:13:41.445Z,31.85
2023-05-25T11:14:46.049Z,31.85
2023-05-25T11:16:10.915Z,31.84
2023-05-25T11:17:20.026Z,31.85
2023-05-25T11:18:24.623Z,31.83
2023-05-25T11:19:42.798Z,31.81
2023-05-25T11:20:47.301Z,31.81
2023-05-25T11:21:54.174Z,31.79
2023-05-25T11:23:00.205Z,31.81
2023-05-25T11:24:07.810Z,31.81
2023-05-25T11:25:40.458Z,31.81
2023-05-25T11:27:02.009Z,31.81
2023-05-25T11:28:07.782Z,31.81
2023-05-25T11:29:17.770Z,31.81
2023-05-25T11:30:23.669Z,31.80
2023-05-25T11:31:38.892Z,31.81
2023-05-25T11:32:52.295Z,31.81
2023-05-25T11:33:58.740Z,31.81
2023-05-25T11:35:04.575Z,31.82
2023-05-25T11:36:10.818Z,31.83
2023-05-25T11:37:22.096Z,31.83
2023-05-25T11:38:27.032Z,31.84
2023-05-25T11:39:33.304Z,31.83
2023-05-25T11:40:40.052Z,31.85
2023-05-25T11:41:50.732Z,31.83
2023-05-25T11:42:59.079Z,31.82
2023-05-25T11:44:07.007Z,31.80
2023-05-25T11:45:14.932Z,31.79
2023-05-25T11:46:20.797Z,31.81
2023-05-25T11:47:26.774Z,31.79
2023-05-25T11:48:31.378Z,31.79
2023-05-25T11:49:37.391Z,31.80
2023-05-25T11:50:41.876Z,31.80
2023-05-25T11:51:47.713Z,31.77
2023-05-25T11:52:53.557Z,31.72
2023-05-25T11:53:58.512Z,31.68
2023-05-25T11:55:04.365Z,31.64
2023-05-25T11:56:08.857Z,31.61
2023-05-25T11:57:18.848Z,31.57
2023-05-25T11:58:25.006Z,31.54
2023-05-25T11:59:32.464Z,31.53
2023-05-25T12:00:37.637Z,31.53
2023-05-25T12:01:43.934Z,31.51
2023-05-25T12:02:48.529Z,31.46
2023-05-25T12:03:57.577Z,31.44
2023-05-25T12:05:02.874Z,31.35
2023-05-25T12:06:09.046Z,31.25
2023-05-25T12:07:14.842Z,31.19
2023-05-25T12:08:35.376Z,31.11
2023-05-25T12:09:39.948Z,31.04
2023-05-25T12:10:55.132Z,30.83
2023-05-25T12:11:59.750Z,30.55
2023-05-25T12:13:05.633Z,30.20
2023-05-25T12:14:11.733Z,29.93
2023-05-25T12:15:20.802Z,29.72
2023-05-25T12:16:25.701Z,29.53
2023-05-25T12:17:31.791Z,29.33
2023-05-25T12:18:36.396Z,29.20
2023-05-25T12:19:42.436Z,29.13
2023-05-25T12:20:48.649Z,29.12
2023-05-25T12:21:53.536Z,29.12
2023-05-25T12:22:59.414Z,29.10
2023-05-25T12:24:03.996Z,29.12
2023-05-25T12:25:11.401Z,29.04
2023-05-25T12:26:17.198Z,29.02
2023-05-25T12:27:24.868Z,29.00
2023-05-25T12:28:29.393Z,28.95
2023-05-25T12:29:36.810Z,28.85
2023-05-25T12:30:41.517Z,28.77
2023-05-25T12:31:47.586Z,28.63
2023-05-25T12:32:56.462Z,28.52
2023-05-25T12:34:12.713Z,28.44
2023-05-25T12:35:17.245Z,28.35
2023-05-25T12:36:40.018Z,28.23
2023-05-25T12:37:45.841Z,28.23
2023-05-25T12:39:00.996Z,28.29
2023-05-25T12:40:20.732Z,28.36
2023-05-25T12:41:25.356Z,28.36
2023-05-25T12:42:33.163Z,28.27
2023-05-25T12:43:41.168Z,28.21
2023-05-25T12:44:49.264Z,28.19
2023-05-25T12:45:55.157Z,28.18
2023-05-25T12:47:11.718Z,28.21
2023-05-25T12:48:17.626Z,28.29
2023-05-25T12:49:29.324Z,28.34
2023-05-25T12:50:35.218Z,28.40
2023-05-25T12:51:42.915Z,28.41
2023-05-25T12:52:49.394Z,28.33
2023-05-25T12:53:55.276Z,28.31
2023-05-25T12:55:01.118Z,28.34
2023-05-25T12:56:07.729Z,28.39
2023-05-25T12:57:15.386Z,28.39
2023-05-25T12:58:31.112Z,28.41
2023-05-25T12:59:36.595Z,28.46
2023-05-25T13:00:44.380Z,28.48
2023-05-25T13:01:49.301Z,28.52
2023-05-25T13:02:55.714Z,28.54
2023-05-25T13:04:00.267Z,28.51
2023-05-25T13:05:06.142Z,28.52
2023-05-25T13:06:12.068Z,28.53
2023-05-25T13:07:18.468Z,28.54
2023-05-25T13:08:24.962Z,28.55
2023-05-25T13:09:30.052Z,28.55
2023-05-25T13:10:36.619Z,28.58
2023-05-25T13:11:41.150Z,28.60
2023-05-25T13:12:47.476Z,28.57
2023-05-25T13:13:54.218Z,28.55
2023-05-25T13:15:00.072Z,28.54
2023-05-25T13:16:07.873Z,28.52
2023-05-25T13:17:13.666Z,28.49
2023-05-25T13:18:18.217Z,28.51
2023-05-25T13:19:25.233Z,28.52
2023-05-25T13:20:33.328Z,28.55
2023-05-25T13:21:37.844Z,28.56
2023-05-25T13:22:44.588Z,28.53
2023-05-25T13:23:50.484Z,28.51
2023-05-25T13:24:56.324Z,28.51
2023-05-25T13:26:02.116Z,28.52
2023-05-25T13:27:08.166Z,28.56
2023-05-25T13:28:12.695Z,28.56
2023-05-25T13:29:18.666Z,28.55
2023-05-25T13:30:24.932Z,28.51
2023-05-25T13:31:31.114Z,28.47
2023-05-25T13:32:37.242Z,28.44
2023-05-25T13:33:41.870Z,28.44
2023-05-25T13:34:47.663Z,28.45
2023-05-25T13:35:59.442Z,28.40
2023-05-25T13:37:05.250Z,28.45
2023-05-25T13:38:11.286Z,28.47
2023-05-25T13:39:17.276Z,28.50
2023-05-25T13:40:21.774Z,28.49
2023-05-25T13:41:27.703Z,28.48
2023-05-25T13:42:32.599Z,28.50
2023-05-25T13:43:38.392Z,28.51
2023-05-25T13:44:44.268Z,28.53
2023-05-25T13:45:48.840Z,28.49
2023-05-25T13:46:56.289Z,28.47
2023-05-25T13:48:01.097Z,28.43
2023-05-25T13:49:07.335Z,28.38
2023-05-25T13:50:12.546Z,28.36
2023-05-25T13:51:19.330Z,28.36
2023-05-25T13:52:25.192Z,28.37
2023-05-25T13:53:29.620Z,28.39
2023-05-25T13:54:35.423Z,28.39
2023-05-25T13:55:40.053Z,28.40
2023-05-25T13:56:45.905Z,28.42
2023-05-25T13:57:50.403Z,28.40
2023-05-25T13:58:56.632Z,28.40
2023-05-25T14:00:01.173Z,28.43
2023-05-25T14:01:07.071Z,28.43
2023-05-25T14:02:14.625Z,28.45
2023-05-25T14:03:19.440Z,28.44
2023-05-25T14:04:25.298Z,28.43
2023-05-25T14:05:29.745Z,28.40
2023-05-25T14:06:35.859Z,28.35
2023-05-25T14:07:42.650Z,28.27
2023-05-25T14:08:47.156Z,28.26
2023-05-25T14:09:52.899Z,28.25
2023-05-25T14:10:58.664Z,28.25
2023-05-25T14:12:04.453Z,28.28
2023-05-25T14:13:08.957Z,28.30
2023-05-25T14:14:30.172Z,28.27
2023-05-25T14:15:36.252Z,28.17
2023-05-25T14:16:42.149Z,28.10
2023-05-25T14:17:49.658Z,28.02
2023-05-25T14:18:56.472Z,28.00
2023-05-25T14:20:05.011Z,28.01
2023-05-25T14:21:09.582Z,28.05
2023-05-25T14:22:15.364Z,28.07
2023-05-25T14:23:22.061Z,28.09